createdAt,value
2023-04-03T00:02:22.041Z,2.30
2023-04-03T00:04:52.847Z,2.50
2023-04-03T00:07:23.551Z,2.60
2023-04-03T00:09:54.213Z,2.20
2023-04-03T00:12:24.957Z,2.30
2023-04-03T00:14:55.797Z,2.30
2023-04-03T00:17:27.330Z,2.20
2023-04-03T00:19:58.062Z,2.10
2023-04-03T00:22:29.752Z,2.10
2023-04-03T00:25:00.414Z,2.00
2023-04-03T00:27:31.136Z,2.00
2023-04-03T00:30:01.792Z,2.30
2023-04-03T00:32:33.086Z,2.40
2023-04-03T00:35:03.772Z,2.80
2023-04-03T00:37:34.764Z,2.50
2023-04-03T00:40:07.380Z,2.60
2023-04-03T00:42:39.780Z,2.10
2023-04-03T00:45:30.897Z,2.20
2023-04-03T00:48:02.623Z,2.20
2023-04-03T00:50:35.203Z,2.00
2023-04-03T00:53:08.435Z,2.30
2023-04-03T00:55:40.195Z,2.50
2023-04-03T00:58:12.726Z,2.10
2023-04-03T01:00:48.909Z,2.30
2023-04-03T01:03:19.649Z,2.30
2023-04-03T01:05:50.825Z,2.30
2023-04-03T01:08:21.650Z,2.10
2023-04-03T01:10:53.788Z,2.00
2023-04-03T01:13:28.759Z,2.50
2023-04-03T01:16:02.383Z,2.20
2023-04-03T01:18:34.703Z,2.30
2023-04-03T01:21:32.217Z,2.20
2023-04-03T01:24:20.105Z,2.10
2023-04-03T01:26:52.373Z,1.90
2023-04-03T01:29:23.210Z,2.60
2023-04-03T01:31:56.911Z,2.10
2023-04-03T01:34:30.253Z,2.30
2023-04-03T01:37:01.250Z,2.20
2023-04-03T01:39:32.182Z,2.20
2023-04-03T01:42:05.535Z,2.20
2023-04-03T01:44:39.978Z,2.10
2023-04-03T01:47:11.189Z,2.30
2023-04-03T01:49:42.870Z,2.10
2023-04-03T01:52:13.692Z,2.10
2023-04-03T01:54:44.613Z,2.00
2023-04-03T01:57:16.299Z,2.30
2023-04-03T01:59:48.104Z,2.30
2023-04-03T02:02:19.991Z,2.00
2023-04-03T02:04:50.940Z,2.10
2023-04-03T02:07:22.429Z,2.10
2023-04-03T02:09:53.208Z,2.10
2023-04-03T02:12:24.490Z,2.40
2023-04-03T02:14:55.377Z,2.10
2023-04-03T02:17:26.170Z,2.00
2023-04-03T02:19:59.498Z,2.10
2023-04-03T02:22:30.376Z,2.10
2023-04-03T02:25:01.638Z,2.20
2023-04-03T02:27:32.871Z,2.40
2023-04-03T02:30:03.572Z,2.70
2023-04-03T02:32:34.503Z,2.10
2023-04-03T02:35:07.907Z,2.30
2023-04-03T02:37:39.310Z,2.20
2023-04-03T02:40:12.888Z,2.00
2023-04-03T02:42:43.717Z,2.10
2023-04-03T02:45:14.634Z,2.30
2023-04-03T02:47:46.758Z,2.30
2023-04-03T02:50:18.064Z,2.30
2023-04-03T02:52:48.804Z,1.80
2023-04-03T02:55:20.068Z,2.00
2023-04-03T02:57:52.081Z,2.20
2023-04-03T03:00:24.006Z,2.00
2023-04-03T03:02:54.847Z,2.30
2023-04-03T03:05:25.742Z,2.30
2023-04-03T03:07:56.786Z,2.00
2023-04-03T03:10:27.728Z,2.50
2023-04-03T03:12:58.437Z,2.40
2023-04-03T03:15:29.159Z,2.10
2023-04-03T03:18:00.779Z,2.10
2023-04-03T03:20:32.264Z,1.90
2023-04-03T03:23:03.005Z,2.20
2023-04-03T03:25:33.727Z,2.20
2023-04-03T03:28:04.404Z,2.20
2023-04-03T03:30:35.975Z,2.20
2023-04-03T03:33:06.951Z,2.20
2023-04-03T03:35:38.063Z,2.00
2023-04-03T03:38:08.974Z,2.00
2023-04-03T03:40:40.068Z,2.20
2023-04-03T03:43:11.163Z,2.50
2023-04-03T03:45:42.449Z,2.40
2023-04-03T03:48:13.361Z,2.70
2023-04-03T03:50:44.636Z,4.40
2023-04-03T03:53:15.970Z,2.90
2023-04-03T03:55:47.301Z,2.10
2023-04-03T03:58:18.338Z,2.90
2023-04-03T04:00:49.285Z,2.00
2023-04-03T04:03:20.805Z,2.20
2023-04-03T04:05:52.438Z,2.00
2023-04-03T04:08:23.425Z,4.10
2023-04-03T04:10:54.279Z,3.70
2023-04-03T04:13:26.258Z,2.40
2023-04-03T04:15:57.073Z,2.70
2023-04-03T04:18:28.025Z,2.30
2023-04-03T04:21:04.311Z,2.50
2023-04-03T04:23:36.238Z,2.20
2023-04-03T04:26:08.006Z,2.70
2023-04-03T04:28:40.268Z,2.40
2023-04-03T04:31:11.899Z,2.10
2023-04-03T04:33:48.320Z,2.60
2023-04-03T04:36:19.679Z,2.70
2023-04-03T04:38:53.768Z,2.40
2023-04-03T04:41:25.776Z,2.30
2023-04-03T04:43:57.028Z,2.10
2023-04-03T04:46:28.512Z,2.50
2023-04-03T04:49:01.682Z,2.50
2023-04-03T04:51:41.075Z,2.50
2023-04-03T04:54:21.351Z,2.50
2023-04-03T04:56:52.943Z,2.20
2023-04-03T04:59:24.855Z,2.50
2023-04-03T05:01:57.279Z,2.40
2023-04-03T05:04:28.510Z,2.10
2023-04-03T05:07:04.142Z,4.10
2023-04-03T05:09:35.902Z,3.00
2023-04-03T05:12:07.026Z,2.40
2023-04-03T05:14:43.059Z,1.90
2023-04-03T05:17:14.123Z,2.20
2023-04-03T05:19:48.127Z,2.60
2023-04-03T05:22:19.515Z,2.00
2023-04-03T05:24:50.261Z,2.00
2023-04-03T05:27:21.555Z,2.00
2023-04-03T05:29:57.075Z,2.00
2023-04-03T05:32:29.118Z,2.40
2023-04-03T05:35:18.003Z,2.20
2023-04-03T05:37:49.304Z,2.10
2023-04-03T05:40:21.622Z,2.10
2023-04-03T05:42:54.503Z,2.10
2023-04-03T05:45:27.257Z,2.30
2023-04-03T05:47:58.294Z,2.30
2023-04-03T05:50:29.598Z,2.00
2023-04-03T05:53:01.358Z,1.80
2023-04-03T05:55:33.610Z,2.10
2023-04-03T05:58:04.563Z,1.90
2023-04-03T06:00:35.965Z,2.20
2023-04-03T06:03:07.769Z,2.10
2023-04-03T06:05:39.066Z,1.90
2023-04-03T06:08:10.712Z,2.00
2023-04-03T06:10:41.562Z,2.20
2023-04-03T06:13:13.149Z,2.00
2023-04-03T06:15:43.983Z,1.90
2023-04-03T06:18:14.716Z,1.70
2023-04-03T06:20:45.560Z,3.10
2023-04-03T06:23:16.302Z,1.80
2023-04-03T06:25:47.108Z,2.20
2023-04-03T06:28:20.313Z,2.00
2023-04-03T06:30:51.161Z,1.90
2023-04-03T06:33:21.895Z,2.00
2023-04-03T06:35:59.686Z,1.90
2023-04-03T06:38:31.032Z,2.20
2023-04-03T06:41:02.290Z,1.90
2023-04-03T06:43:34.842Z,2.00
2023-04-03T06:46:06.270Z,2.80
2023-04-03T06:48:37.241Z,2.00
2023-04-03T06:51:23.420Z,3.50
2023-04-03T06:53:55.632Z,2.00
2023-04-03T06:56:27.449Z,1.80
2023-04-03T06:58:59.341Z,2.40
2023-04-03T07:01:32.010Z,1.70
2023-04-03T07:04:03.320Z,9.50
2023-04-03T07:06:34.704Z,2.10
2023-04-03T07:09:06.367Z,1.90
2023-04-03T07:11:37.136Z,2.10
2023-04-03T07:14:08.862Z,2.00
2023-04-03T07:16:41.905Z,1.80
2023-04-03T07:19:13.652Z,1.90
2023-04-03T07:21:44.482Z,1.90
2023-04-03T07:24:16.733Z,2.30
2023-04-03T07:26:50.842Z,1.90
2023-04-03T07:29:22.637Z,1.90
2023-04-03T07:31:54.307Z,3.50
2023-04-03T07:34:25.430Z,2.10
2023-04-03T07:36:56.190Z,2.10
2023-04-03T07:39:27.357Z,1.50
2023-04-03T07:41:58.293Z,1.70
2023-04-03T07:44:29.259Z,2.00
2023-04-03T07:47:00.932Z,2.00
2023-04-03T07:49:34.013Z,1.70
2023-04-03T07:52:05.254Z,1.90
2023-04-03T07:54:36.216Z,2.20
2023-04-03T07:57:07.807Z,2.00
2023-04-03T07:59:38.614Z,1.60
2023-04-03T08:02:10.626Z,1.80
2023-04-03T08:04:41.954Z,1.90
2023-04-03T08:07:12.737Z,1.70
2023-04-03T08:09:43.621Z,1.70
2023-04-03T08:12:15.900Z,1.60
2023-04-03T08:14:47.193Z,1.90
2023-04-03T08:17:18.230Z,1.90
2023-04-03T08:19:49.108Z,1.60
2023-04-03T08:22:19.884Z,1.50
2023-04-03T08:24:58.552Z,1.70
2023-04-03T08:27:30.284Z,1.50
2023-04-03T08:30:01.111Z,1.70
2023-04-03T08:32:32.144Z,1.70
2023-04-03T08:35:02.960Z,2.00
2023-04-03T08:37:33.921Z,1.50
2023-04-03T08:40:05.139Z,2.10
2023-04-03T08:42:48.352Z,1.70
2023-04-03T08:45:23.878Z,1.60
2023-04-03T08:48:02.716Z,1.60
2023-04-03T08:50:39.945Z,1.70
2023-04-03T08:53:17.128Z,1.60
2023-04-03T08:55:51.216Z,1.50
2023-04-03T08:58:23.934Z,1.60
2023-04-03T09:00:59.515Z,1.90
2023-04-03T09:03:34.302Z,1.70
2023-04-03T09:06:09.154Z,1.90
2023-04-03T09:08:48.647Z,1.40
2023-04-03T09:11:28.488Z,1.60
2023-04-03T09:14:05.033Z,1.60
2023-04-03T09:16:45.773Z,1.70
2023-04-03T09:19:26.100Z,1.70
2023-04-03T09:21:58.433Z,1.70
2023-04-03T09:24:30.242Z,1.40
2023-04-03T09:27:06.876Z,1.50
2023-04-03T09:29:41.220Z,1.90
2023-04-03T09:32:24.270Z,1.50
2023-04-03T09:34:59.733Z,1.80
2023-04-03T09:37:41.678Z,1.60
2023-04-03T09:43:28.299Z,2.50
2023-04-03T09:46:19.410Z,1.50
2023-04-03T09:49:08.222Z,1.70
2023-04-03T09:51:41.905Z,2.90
2023-04-03T09:54:42.108Z,1.60
2023-04-03T09:57:15.584Z,1.60
2023-04-03T09:59:59.036Z,1.70
2023-04-03T10:02:41.605Z,1.80
2023-04-03T10:05:30.789Z,1.60
2023-04-03T10:08:25.109Z,2.00
2023-04-03T10:14:01.329Z,1.70
2023-04-03T10:16:40.573Z,1.30
2023-04-03T10:19:36.727Z,1.60
2023-04-03T10:22:15.610Z,1.40
2023-04-03T10:25:02.944Z,1.70
2023-04-03T10:27:47.072Z,1.70
2023-04-03T10:30:45.426Z,1.30
2023-04-03T10:33:36.611Z,1.40
2023-04-03T10:36:18.581Z,1.60
2023-04-03T10:38:59.926Z,1.80
2023-04-03T10:41:42.271Z,1.80
2023-04-03T10:44:23.110Z,1.60
2023-04-03T10:47:03.706Z,1.60
2023-04-03T10:49:57.041Z,1.80
2023-04-03T10:52:41.162Z,1.60
2023-04-03T10:55:33.172Z,1.60
2023-04-03T10:58:07.120Z,1.60
2023-04-03T11:00:44.796Z,1.70
2023-04-03T11:03:19.591Z,1.30
2023-04-03T11:05:54.773Z,1.50
2023-04-03T11:08:32.484Z,1.50
2023-04-03T11:11:07.811Z,1.30
2023-04-03T11:13:45.296Z,1.40
2023-04-03T11:16:23.764Z,1.90
2023-04-03T11:18:58.447Z,1.70
2023-04-03T11:21:35.846Z,1.70
2023-04-03T11:24:18.094Z,1.50
2023-04-03T11:26:51.308Z,1.80
2023-04-03T11:29:34.854Z,1.40
2023-04-03T11:32:23.168Z,1.50
2023-04-03T11:34:57.651Z,1.70
2023-04-03T11:37:36.603Z,1.80
2023-04-03T11:40:12.300Z,5.40
2023-04-03T11:42:44.726Z,2.80
2023-04-03T11:45:41.167Z,2.30
2023-04-03T11:48:58.465Z,2.80
2023-04-03T11:51:46.676Z,1.80
2023-04-03T11:54:52.029Z,1.70
2023-04-03T11:58:03.989Z,1.70
2023-04-03T12:01:03.537Z,1.80
2023-04-03T12:04:08.249Z,1.60
2023-04-03T12:07:16.043Z,1.70
2023-04-03T12:10:31.244Z,1.60
2023-04-03T12:13:17.488Z,1.70
2023-04-03T12:16:05.178Z,1.30
2023-04-03T12:19:03.918Z,1.50
2023-04-03T12:22:14.528Z,1.70
2023-04-03T12:24:46.393Z,1.70
2023-04-03T12:27:35.382Z,1.50
2023-04-03T12:30:27.879Z,1.60
2023-04-03T12:33:22.795Z,1.40
2023-04-03T12:36:07.088Z,1.50
2023-04-03T12:38:52.945Z,1.30
2023-04-03T12:41:31.606Z,2.10
2023-04-03T12:44:30.472Z,2.50
2023-04-03T12:47:04.354Z,1.50
2023-04-03T12:49:41.541Z,1.50
2023-04-03T12:52:26.906Z,1.90
2023-04-03T12:54:58.825Z,1.40
2023-04-03T12:57:31.156Z,1.40
2023-04-03T13:00:20.760Z,1.60
2023-04-03T13:02:51.708Z,1.60
2023-04-03T13:05:24.135Z,1.50
2023-04-03T13:07:59.593Z,1.60
2023-04-03T13:10:30.577Z,1.50
2023-04-03T13:13:09.226Z,1.70
2023-04-03T13:15:47.281Z,1.50
2023-04-03T13:18:42.049Z,1.70
2023-04-03T13:21:19.792Z,1.70
2023-04-03T13:23:57.616Z,2.40
2023-04-03T13:26:35.953Z,1.70
2023-04-03T13:29:11.052Z,10.80
2023-04-03T13:31:48.643Z,2.10
2023-04-03T13:34:22.504Z,1.80
2023-04-03T13:37:02.330Z,1.70
2023-04-03T13:39:35.844Z,1.70
2023-04-03T13:42:24.768Z,1.80
2023-04-03T13:45:25.131Z,1.60
2023-04-03T13:48:22.035Z,1.70
2023-04-03T13:51:05.380Z,1.50
2023-04-03T13:53:44.417Z,1.50
2023-04-03T13:56:27.143Z,1.80
2023-04-03T13:59:08.450Z,2.20
2023-04-03T14:01:51.949Z,2.30
2023-04-03T14:04:25.487Z,3.00
2023-04-03T14:07:01.706Z,1.90
2023-04-03T14:09:36.034Z,1.60
2023-04-03T14:12:17.938Z,1.80
2023-04-03T14:14:56.990Z,2.00
2023-04-03T14:17:29.638Z,1.80
2023-04-03T14:20:05.586Z,1.60
2023-04-03T14:22:37.198Z,1.50
2023-04-03T14:25:09.663Z,1.70
2023-04-03T14:27:44.737Z,1.60
2023-04-03T14:30:24.294Z,1.60
2023-04-03T14:32:56.944Z,2.00
2023-04-03T14:35:34.537Z,1.60
2023-04-03T14:38:07.798Z,2.10
2023-04-03T14:40:38.690Z,2.00
2023-04-03T14:43:21.663Z,1.80
2023-04-03T14:45:53.101Z,2.00
2023-04-03T14:48:26.385Z,1.60
2023-04-03T14:51:06.546Z,1.90
2023-04-03T14:53:39.175Z,1.80
2023-04-03T14:56:15.950Z,1.70
2023-04-03T14:58:50.489Z,2.00
2023-04-03T15:01:22.382Z,2.40
2023-04-03T15:03:53.347Z,2.00
2023-04-03T15:06:24.696Z,1.60
2023-04-03T15:08:55.466Z,1.50
2023-04-03T15:11:27.789Z,2.10
2023-04-03T15:13:58.610Z,2.30
2023-04-03T15:16:29.668Z,1.70
2023-04-03T15:19:00.386Z,1.70
2023-04-03T15:21:31.132Z,1.60
2023-04-03T15:24:02.258Z,2.10
2023-04-03T15:26:33.572Z,1.80
2023-04-03T15:29:05.238Z,2.30
2023-04-03T15:31:36.188Z,2.20
2023-04-03T15:34:07.039Z,3.00
2023-04-03T15:36:37.843Z,2.20
2023-04-03T15:39:08.785Z,2.20
2023-04-03T15:41:39.655Z,1.70
2023-04-03T15:44:10.382Z,1.90
2023-04-03T15:46:42.254Z,2.00
2023-04-03T15:49:13.059Z,1.90
2023-04-03T15:51:49.047Z,2.00
2023-04-03T15:54:22.010Z,2.20
2023-04-03T15:56:52.803Z,2.00
2023-04-03T15:59:23.648Z,2.10
2023-04-03T16:01:56.474Z,2.30
2023-04-03T16:04:28.886Z,3.00
2023-04-03T16:07:02.670Z,2.20
2023-04-03T16:09:35.448Z,2.30
2023-04-03T16:12:10.487Z,1.80
2023-04-03T16:14:41.396Z,2.40
2023-04-03T16:17:12.573Z,2.60
2023-04-03T16:19:43.429Z,1.80
2023-04-03T16:22:15.379Z,2.10
2023-04-03T16:24:46.774Z,2.30
2023-04-03T16:27:21.417Z,2.30
2023-04-03T16:29:52.169Z,2.30
2023-04-03T16:32:24.437Z,2.20
2023-04-03T16:34:55.883Z,2.10
2023-04-03T16:37:27.973Z,2.00
2023-04-03T16:40:01.083Z,2.00
2023-04-03T16:42:32.688Z,1.90
2023-04-03T16:45:04.808Z,2.20
2023-04-03T16:47:35.800Z,2.10
2023-04-03T16:50:09.952Z,1.90
2023-04-03T16:53:35.694Z,1.90
2023-04-03T16:56:11.821Z,1.90
2023-04-03T16:58:45.865Z,2.10
2023-04-03T17:01:23.257Z,2.20
2023-04-03T17:03:55.638Z,2.60
2023-04-03T17:06:27.170Z,2.10
2023-04-03T17:09:07.908Z,2.40
2023-04-03T17:11:39.194Z,2.20
2023-04-03T17:14:12.325Z,2.60
2023-04-03T17:16:47.328Z,2.40
2023-04-03T17:19:18.515Z,2.60
2023-04-03T17:21:49.982Z,2.40
2023-04-03T17:24:21.968Z,2.10
2023-04-03T17:26:52.751Z,2.40
2023-04-03T17:29:25.441Z,3.20
2023-04-03T17:31:56.193Z,2.30
2023-04-03T17:34:27.045Z,2.90
2023-04-03T17:36:57.911Z,2.40
2023-04-03T17:39:30.123Z,3.50
2023-04-03T17:42:01.418Z,3.50
2023-04-03T17:44:34.765Z,3.30
2023-04-03T17:47:06.056Z,2.60
2023-04-03T17:50:26.309Z,3.50
2023-04-03T17:52:57.139Z,3.10
2023-04-03T17:55:28.272Z,3.10
2023-04-03T17:57:59.763Z,2.80
2023-04-03T18:00:30.843Z,2.20
2023-04-03T18:03:02.396Z,2.30
2023-04-03T18:05:33.339Z,2.50
2023-04-03T18:08:04.309Z,2.70
2023-04-03T18:10:36.821Z,2.60
2023-04-03T18:13:09.865Z,3.60
2023-04-03T18:15:45.776Z,2.80
2023-04-03T18:18:16.678Z,2.70
2023-04-03T18:20:47.503Z,3.30
2023-04-03T18:23:18.678Z,3.00
2023-04-03T18:25:49.409Z,2.80
2023-04-03T18:28:20.455Z,2.80
2023-04-03T18:30:51.613Z,3.50
2023-04-03T18:33:22.873Z,3.10
2023-04-03T18:35:54.324Z,4.40
2023-04-03T18:38:25.191Z,3.60
2023-04-03T18:40:56.767Z,3.90
2023-04-03T18:43:28.900Z,3.80
2023-04-03T18:45:59.653Z,4.00
2023-04-03T18:48:31.436Z,3.00
2023-04-03T18:51:02.791Z,3.00
2023-04-03T18:53:33.484Z,3.60
2023-04-03T18:56:04.405Z,2.90
2023-04-03T18:58:35.292Z,3.20
2023-04-03T19:01:06.662Z,3.90
2023-04-03T19:03:39.116Z,3.70
2023-04-03T19:06:11.309Z,4.00
2023-04-03T19:08:42.369Z,4.30
2023-04-03T19:11:13.296Z,4.70
2023-04-03T19:13:47.003Z,4.70
2023-04-03T19:16:37.953Z,4.40
2023-04-03T19:19:12.348Z,4.80
2023-04-03T19:21:43.554Z,3.80
2023-04-03T19:24:14.868Z,4.50
2023-04-03T19:26:46.633Z,4.40
2023-04-03T19:29:17.957Z,4.60
2023-04-03T19:31:48.791Z,4.00
2023-04-03T19:34:20.622Z,4.90
2023-04-03T19:36:52.295Z,3.90
2023-04-03T19:42:39.188Z,4.60
2023-04-03T19:45:14.927Z,5.10
2023-04-03T19:47:46.234Z,4.50
2023-04-03T19:50:18.302Z,4.60
2023-04-03T19:52:50.693Z,4.90
2023-04-03T19:55:25.641Z,4.20
2023-04-03T19:58:05.155Z,5.50
2023-04-03T20:00:37.415Z,6.00
2023-04-03T20:03:09.468Z,5.50
2023-04-03T20:05:46.608Z,5.80
2023-04-03T20:08:18.061Z,6.80
2023-04-03T20:10:50.383Z,5.30
2023-04-03T20:13:23.305Z,5.30
2023-04-03T20:16:00.814Z,5.10
2023-04-03T20:18:47.377Z,5.00
2023-04-03T20:21:19.445Z,5.20
2023-04-03T20:23:51.371Z,5.00
2023-04-03T20:26:31.857Z,4.90
2023-04-03T20:29:10.577Z,4.40
2023-04-03T20:31:44.997Z,5.00
2023-04-03T20:34:18.588Z,5.10
2023-04-03T20:36:50.057Z,5.30
2023-04-03T20:39:29.233Z,4.70
2023-04-03T20:42:00.236Z,4.70
2023-04-03T20:44:33.798Z,4.90
2023-04-03T20:47:04.642Z,5.50
2023-04-03T20:49:35.997Z,4.40
2023-04-03T20:52:06.773Z,4.50
2023-04-03T20:54:40.222Z,6.50
2023-04-03T20:57:11.061Z,5.40
2023-04-03T20:59:42.510Z,4.10
2023-04-03T21:02:13.352Z,5.00
2023-04-03T21:04:48.297Z,4.80
2023-04-03T21:07:54.741Z,6.40
2023-04-03T21:13:50.002Z,4.10
2023-04-03T21:16:17.844Z,4.10
2023-04-03T21:18:59.541Z,3.70
2023-04-03T21:21:31.265Z,4.00
2023-04-03T21:24:07.498Z,4.20
2023-04-03T21:29:52.660Z,3.90
2023-04-03T21:32:23.681Z,3.90
2023-04-03T21:34:55.540Z,4.40
2023-04-03T21:37:29.871Z,4.60
2023-04-03T21:40:02.610Z,4.50
2023-04-03T21:42:33.358Z,4.30
2023-04-03T21:45:04.116Z,5.30
2023-04-03T21:47:35.654Z,4.40
2023-04-03T21:50:07.984Z,4.20
2023-04-03T21:52:38.763Z,4.50
2023-04-03T21:55:11.374Z,4.10
2023-04-03T21:57:42.511Z,4.50
2023-04-03T22:00:15.076Z,4.10
2023-04-03T22:02:45.949Z,4.10
2023-04-03T22:05:16.936Z,3.90
2023-04-03T22:07:48.620Z,3.80
2023-04-03T22:10:19.464Z,4.30
2023-04-03T22:12:50.199Z,4.20
2023-04-03T22:15:23.053Z,3.80
2023-04-03T22:17:54.534Z,3.90
2023-04-03T22:20:25.636Z,3.60
2023-04-03T22:22:56.379Z,4.40
2023-04-03T22:25:27.126Z,4.30
2023-04-03T22:27:58.035Z,4.20
2023-04-03T22:30:28.762Z,4.20
2023-04-03T22:32:59.454Z,3.70
2023-04-03T22:35:30.206Z,3.70
2023-04-03T22:38:00.924Z,3.10
2023-04-03T22:40:34.337Z,4.30
2023-04-03T22:43:05.312Z,3.60
2023-04-03T22:45:36.874Z,4.30
2023-04-03T22:48:08.202Z,4.00
2023-04-03T22:50:40.767Z,3.40
2023-04-03T22:53:13.474Z,4.00
2023-04-03T22:55:44.194Z,4.30
2023-04-03T22:58:14.886Z,4.00
2023-04-03T23:00:47.232Z,4.30
2023-04-03T23:03:18.234Z,2.80
2023-04-03T23:05:50.636Z,3.30
2023-04-03T23:08:21.773Z,4.40
2023-04-03T23:10:54.651Z,3.50
2023-04-03T23:13:26.080Z,3.40
2023-04-03T23:15:57.816Z,3.70
2023-04-03T23:18:30.326Z,3.90
2023-04-03T23:21:04.665Z,3.90
2023-04-03T23:23:35.528Z,3.30
2023-04-03T23:26:09.282Z,3.10
2023-04-03T23:28:41.874Z,3.50
2023-04-03T23:31:12.610Z,3.40
2023-04-03T23:33:44.066Z,3.30
2023-04-03T23:36:16.218Z,3.60
2023-04-03T23:38:47.139Z,3.50
2023-04-03T23:41:21.164Z,3.60
2023-04-03T23:43:52.022Z,3.90
2023-04-03T23:46:22.866Z,3.60
2023-04-03T23:48:53.583Z,3.20
2023-04-03T23:51:24.419Z,3.30
2023-04-03T23:53:55.188Z,3.10
2023-04-03T23:56:25.954Z,3.40
2023-04-03T23:58:57.280Z,3.40
